createdAt,value
2023-05-05T00:02:23.211Z,4.28
2023-05-05T00:04:49.610Z,4.13
2023-05-05T00:07:17.299Z,4.45
2023-05-05T00:09:43.702Z,4.35
2023-05-05T00:12:10.144Z,4.10
2023-05-05T00:14:36.584Z,4.68
2023-05-05T00:17:03.025Z,4.40
2023-05-05T00:19:29.444Z,4.88
2023-05-05T00:21:55.806Z,4.30
2023-05-05T00:24:23.730Z,4.55
2023-05-05T00:26:50.121Z,4.78
2023-05-05T00:29:16.480Z,4.72
2023-05-05T00:31:42.920Z,4.93
2023-05-05T00:34:09.358Z,4.57
2023-05-05T00:36:35.692Z,5.22
2023-05-05T00:39:02.084Z,5.07
2023-05-05T00:41:29.808Z,4.63
2023-05-05T00:43:56.169Z,5.20
2023-05-05T00:46:24.221Z,5.07
2023-05-05T00:48:50.935Z,4.53
2023-05-05T00:51:18.095Z,5.40
2023-05-05T00:53:44.722Z,4.70
2023-05-05T00:56:11.853Z,4.85
2023-05-05T00:58:41.519Z,5.47
2023-05-05T01:01:08.176Z,4.82
2023-05-05T01:03:36.004Z,4.68
2023-05-05T01:06:11.328Z,5.15
2023-05-05T01:08:51.025Z,4.55
2023-05-05T01:11:25.193Z,4.55
2023-05-05T01:14:05.785Z,4.88
2023-05-05T01:16:36.721Z,4.32
2023-05-05T01:19:17.298Z,5.18
2023-05-05T01:21:48.132Z,5.47
2023-05-05T01:24:37.967Z,5.03
2023-05-05T01:27:28.934Z,5.78
2023-05-05T01:30:05.222Z,4.80
2023-05-05T01:32:38.468Z,5.00
2023-05-05T01:35:13.568Z,5.35
2023-05-05T01:37:46.501Z,5.00
2023-05-05T01:40:15.312Z,6.03
2023-05-05T01:42:43.894Z,5.03
2023-05-05T01:45:12.686Z,5.40
2023-05-05T01:47:43.405Z,5.25
2023-05-05T01:50:12.093Z,5.32
2023-05-05T01:52:40.071Z,5.72
2023-05-05T01:55:08.752Z,5.30
2023-05-05T01:57:38.390Z,5.30
2023-05-05T02:00:07.284Z,5.13
2023-05-05T02:02:36.075Z,5.60
2023-05-05T02:05:06.330Z,5.47
2023-05-05T02:07:33.865Z,5.15
2023-05-05T02:10:02.073Z,5.13
2023-05-05T02:12:30.983Z,5.72
2023-05-05T02:15:01.255Z,4.95
2023-05-05T02:17:29.360Z,4.90
2023-05-05T02:19:58.101Z,5.32
2023-05-05T02:22:25.827Z,5.10
2023-05-05T02:24:52.302Z,5.90
2023-05-05T02:27:20.036Z,5.15
2023-05-05T02:29:49.242Z,5.72
2023-05-05T02:32:20.299Z,5.38
2023-05-05T02:34:49.838Z,4.80
2023-05-05T02:37:21.385Z,5.25
2023-05-05T02:39:54.368Z,5.03
2023-05-05T02:42:22.761Z,5.72
2023-05-05T02:44:51.678Z,5.43
2023-05-05T02:47:18.056Z,5.70
2023-05-05T02:49:44.441Z,5.28
2023-05-05T02:52:10.854Z,5.38
2023-05-05T02:54:37.283Z,5.70
2023-05-05T02:57:04.989Z,6.13
2023-05-05T02:59:37.475Z,5.78
2023-05-05T03:02:14.412Z,5.32
2023-05-05T03:04:45.020Z,5.28
2023-05-05T03:07:15.890Z,6.18
2023-05-05T03:09:49.578Z,5.90
2023-05-05T03:14:48.503Z,5.78
2023-05-05T03:17:18.432Z,5.88
2023-05-05T03:19:45.949Z,6.13
2023-05-05T03:22:12.760Z,5.80
2023-05-05T03:24:39.114Z,5.68
2023-05-05T03:27:05.528Z,6.00
2023-05-05T03:29:33.250Z,5.28
2023-05-05T03:31:59.744Z,5.40
2023-05-05T03:34:26.426Z,5.93
2023-05-05T03:36:52.825Z,6.10
2023-05-05T03:39:19.193Z,5.30
2023-05-05T03:41:45.566Z,6.50
2023-05-05T03:44:11.932Z,5.90
2023-05-05T03:46:39.720Z,5.55
2023-05-05T03:49:06.097Z,6.00
2023-05-05T03:51:32.480Z,6.50
2023-05-05T03:53:58.844Z,4.97
2023-05-05T03:56:25.212Z,6.15
2023-05-05T03:58:51.580Z,5.85
2023-05-05T04:01:17.990Z,6.32
2023-05-05T04:03:45.750Z,6.53
2023-05-05T04:06:12.124Z,6.22
2023-05-05T04:08:38.533Z,5.85
2023-05-05T04:11:04.986Z,6.88
2023-05-05T04:13:31.359Z,6.43
2023-05-05T04:15:57.750Z,6.43
2023-05-05T04:18:24.174Z,6.90
2023-05-05T04:20:51.982Z,7.35
2023-05-05T04:23:18.383Z,6.25
2023-05-05T04:25:44.853Z,6.05
2023-05-05T04:28:11.240Z,6.90
2023-05-05T04:30:37.584Z,6.03
2023-05-05T04:33:04.242Z,6.20
2023-05-05T04:35:30.697Z,6.10
2023-05-05T04:37:58.397Z,7.07
2023-05-05T04:40:24.837Z,6.35
2023-05-05T04:42:51.238Z,6.65
2023-05-05T04:45:18.225Z,6.10
2023-05-05T04:47:44.676Z,6.45
2023-05-05T04:50:11.248Z,6.20
2023-05-05T04:52:37.789Z,5.90
2023-05-05T04:55:06.579Z,6.80
2023-05-05T04:57:32.942Z,6.85
2023-05-05T05:00:00.447Z,6.20
2023-05-05T05:02:26.937Z,6.65
2023-05-05T05:04:53.346Z,6.10
2023-05-05T05:07:19.738Z,7.00
2023-05-05T05:09:46.173Z,6.43
2023-05-05T05:12:13.942Z,5.85
2023-05-05T05:14:40.351Z,6.65
2023-05-05T05:17:07.029Z,6.45
2023-05-05T05:19:33.909Z,6.50
2023-05-05T05:22:00.301Z,6.65
2023-05-05T05:24:26.777Z,6.72
2023-05-05T05:26:53.270Z,6.95
2023-05-05T05:29:20.983Z,6.57
2023-05-05T05:31:47.444Z,6.45
2023-05-05T05:34:13.840Z,6.90
2023-05-05T05:36:40.219Z,6.45
2023-05-05T05:39:06.619Z,6.57
2023-05-05T05:41:33.111Z,6.18
2023-05-05T05:43:59.535Z,6.50
2023-05-05T05:46:27.493Z,6.78
2023-05-05T05:48:53.906Z,6.28
2023-05-05T05:51:20.271Z,6.60
2023-05-05T05:53:46.645Z,6.20
2023-05-05T05:56:13.065Z,6.57
2023-05-05T05:58:39.478Z,6.53
2023-05-05T06:01:05.963Z,6.57
2023-05-05T06:03:33.855Z,6.72
2023-05-05T06:06:01.057Z,5.65
2023-05-05T06:08:27.414Z,7.25
2023-05-05T06:10:53.802Z,6.22
2023-05-05T06:13:20.243Z,6.22
2023-05-05T06:15:46.694Z,6.55
2023-05-05T06:18:13.277Z,6.22
2023-05-05T06:20:41.025Z,6.15
2023-05-05T06:23:07.595Z,6.20
2023-05-05T06:25:33.981Z,6.50
2023-05-05T06:28:00.372Z,7.03
2023-05-05T06:30:27.058Z,6.47
2023-05-05T06:32:53.528Z,6.53
2023-05-05T06:35:19.952Z,6.72
2023-05-05T06:37:47.703Z,6.25
2023-05-05T06:40:14.252Z,6.80
2023-05-05T06:42:40.627Z,6.28
2023-05-05T06:45:08.501Z,6.13
2023-05-05T06:47:35.483Z,6.70
2023-05-05T06:50:01.956Z,6.82
2023-05-05T06:52:28.363Z,6.03
2023-05-05T06:54:56.110Z,7.18
2023-05-05T06:57:22.476Z,6.75
2023-05-05T06:59:48.920Z,6.65
2023-05-05T07:02:15.309Z,6.63
2023-05-05T07:04:42.348Z,6.97
2023-05-05T07:07:08.703Z,6.47
2023-05-05T07:09:35.091Z,6.93
2023-05-05T07:12:02.931Z,6.57
2023-05-05T07:14:29.352Z,6.88
2023-05-05T07:16:55.805Z,7.15
2023-05-05T07:19:22.307Z,6.70
2023-05-05T07:21:48.705Z,7.40
2023-05-05T07:24:15.057Z,6.75
2023-05-05T07:26:41.519Z,7.03
2023-05-05T07:29:09.397Z,6.95
2023-05-05T07:31:35.808Z,6.78
2023-05-05T07:34:02.234Z,6.50
2023-05-05T07:36:28.638Z,6.38
2023-05-05T07:38:55.110Z,7.40
2023-05-05T07:41:21.558Z,6.97
2023-05-05T07:43:48.081Z,6.25
2023-05-05T07:46:15.799Z,7.63
2023-05-05T07:48:42.219Z,7.15
2023-05-05T07:51:09.352Z,7.32
2023-05-05T07:53:35.791Z,7.03
2023-05-05T07:56:02.386Z,7.72
2023-05-05T07:58:28.825Z,6.97
2023-05-05T08:00:55.248Z,7.57
2023-05-05T08:03:23.098Z,7.18
2023-05-05T08:05:51.698Z,7.30
2023-05-05T08:08:18.261Z,7.82
2023-05-05T08:10:44.644Z,7.40
2023-05-05T08:13:11.263Z,8.15
2023-05-05T08:15:37.677Z,7.88
2023-05-05T08:18:04.099Z,7.15
2023-05-05T08:20:31.919Z,7.38
2023-05-05T08:22:59.020Z,7.47
2023-05-05T08:25:25.450Z,8.45
2023-05-05T08:27:52.158Z,8.05
2023-05-05T08:30:18.621Z,7.95
2023-05-05T08:32:45.096Z,8.10
2023-05-05T08:35:12.155Z,7.88
2023-05-05T08:37:40.166Z,7.68
2023-05-05T08:40:07.809Z,7.25
2023-05-05T08:42:38.409Z,8.25
2023-05-05T08:45:08.303Z,7.72
2023-05-05T08:47:35.252Z,8.05
2023-05-05T08:50:02.559Z,8.15
2023-05-05T08:52:37.610Z,7.10
2023-05-05T08:55:13.405Z,8.85
2023-05-05T08:57:43.975Z,8.80
2023-05-05T09:00:12.697Z,8.43
2023-05-05T09:02:40.373Z,7.85
2023-05-05T09:05:07.731Z,8.00
2023-05-05T09:07:34.994Z,8.15
2023-05-05T09:10:03.347Z,7.50
2023-05-05T09:12:31.616Z,7.97
2023-05-05T09:14:59.405Z,8.13
2023-05-05T09:17:26.538Z,7.55
2023-05-05T09:20:01.163Z,8.35
2023-05-05T09:22:35.457Z,7.95
2023-05-05T09:25:02.351Z,8.10
2023-05-05T09:27:36.171Z,8.07
2023-05-05T09:30:05.135Z,8.40
2023-05-05T09:32:43.145Z,8.35
2023-05-05T09:35:09.829Z,8.90
2023-05-05T09:37:36.376Z,7.68
2023-05-05T09:40:02.813Z,8.15
2023-05-05T09:42:29.603Z,8.32
2023-05-05T09:44:59.110Z,8.90
2023-05-05T09:47:35.166Z,9.05
2023-05-05T09:50:02.067Z,9.70
2023-05-05T09:52:28.632Z,8.60
2023-05-05T09:54:55.745Z,8.57
2023-05-05T09:57:26.961Z,7.63
2023-05-05T09:59:54.911Z,8.82
2023-05-05T10:02:29.488Z,8.10
2023-05-05T10:05:08.216Z,8.40
2023-05-05T10:07:36.038Z,8.75
2023-05-05T10:10:03.698Z,7.80
2023-05-05T10:12:31.614Z,8.93
2023-05-05T10:15:01.301Z,7.57
2023-05-05T10:17:30.295Z,8.95
2023-05-05T10:19:57.985Z,7.75
2023-05-05T10:22:28.293Z,8.00
2023-05-05T10:24:57.653Z,8.88
2023-05-05T10:27:32.955Z,8.10
2023-05-05T10:30:04.169Z,7.75
2023-05-05T10:32:56.917Z,7.22
2023-05-05T10:35:24.747Z,6.63
2023-05-05T10:37:53.021Z,7.65
2023-05-05T10:40:22.103Z,7.82
2023-05-05T10:42:49.709Z,7.43
2023-05-05T10:45:16.598Z,7.82
2023-05-05T10:47:43.585Z,8.10
2023-05-05T10:50:17.970Z,8.15
2023-05-05T10:52:53.409Z,7.50
2023-05-05T10:55:27.728Z,7.68
2023-05-05T10:57:54.199Z,7.75
2023-05-05T11:03:22.988Z,8.30
2023-05-05T11:06:11.720Z,7.15
2023-05-05T11:08:39.305Z,7.70
2023-05-05T11:11:06.378Z,7.63
2023-05-05T11:13:32.838Z,8.20
2023-05-05T11:16:00.559Z,7.85
2023-05-05T11:18:35.983Z,8.75
2023-05-05T11:21:14.155Z,8.68
2023-05-05T11:23:41.365Z,8.50
2023-05-05T11:26:07.926Z,8.13
2023-05-05T11:28:34.662Z,7.50
2023-05-05T11:31:20.414Z,9.00
2023-05-05T11:33:48.404Z,8.10
2023-05-05T11:36:16.277Z,8.80
2023-05-05T11:39:03.771Z,9.00
2023-05-05T11:41:57.368Z,8.75
2023-05-05T11:44:30.211Z,8.85
2023-05-05T11:47:30.573Z,9.65
2023-05-05T11:49:58.592Z,10.02
2023-05-05T11:52:26.672Z,10.57
2023-05-05T11:54:53.125Z,10.73
2023-05-05T11:57:27.030Z,14.30
2023-05-05T11:59:55.033Z,11.85
2023-05-05T12:02:22.204Z,11.85
2023-05-05T12:04:49.120Z,10.88
2023-05-05T12:07:18.150Z,9.73
2023-05-05T12:09:45.648Z,10.30
2023-05-05T12:12:12.875Z,9.52
2023-05-05T12:14:47.089Z,9.88
2023-05-05T12:17:13.550Z,10.00
2023-05-05T12:19:45.464Z,9.07
2023-05-05T12:22:20.564Z,9.00
2023-05-05T12:24:55.100Z,9.07
2023-05-05T12:27:21.984Z,8.75
2023-05-05T12:29:48.977Z,9.35
2023-05-05T12:32:20.801Z,10.07
2023-05-05T12:34:48.027Z,9.70
2023-05-05T12:37:14.807Z,10.82
2023-05-05T12:39:42.517Z,9.32
2023-05-05T12:42:08.956Z,9.30
2023-05-05T12:44:35.896Z,9.32
2023-05-05T12:47:02.449Z,10.15
2023-05-05T12:49:29.136Z,9.13
2023-05-05T12:51:56.647Z,9.95
2023-05-05T12:54:24.042Z,9.98
2023-05-05T12:56:51.941Z,9.35
2023-05-05T12:59:30.688Z,9.40
2023-05-05T13:01:58.652Z,8.98
2023-05-05T13:04:26.014Z,9.15
2023-05-05T13:07:08.115Z,9.52
2023-05-05T13:09:34.556Z,9.23
2023-05-05T13:12:02.707Z,9.25
2023-05-05T13:14:29.519Z,9.85
2023-05-05T13:16:56.092Z,9.70
2023-05-05T13:19:22.702Z,8.80
2023-05-05T13:21:49.096Z,8.95
2023-05-05T13:26:44.878Z,9.23
2023-05-05T13:29:12.616Z,9.45
2023-05-05T13:31:39.065Z,9.35
2023-05-05T13:34:05.529Z,9.15
2023-05-05T13:36:31.970Z,8.40
2023-05-05T13:38:58.338Z,7.80
2023-05-05T13:41:24.699Z,8.52
2023-05-05T13:43:51.152Z,8.23
2023-05-05T13:46:20.294Z,7.68
2023-05-05T13:48:46.964Z,7.68
2023-05-05T13:51:13.384Z,8.55
2023-05-05T13:53:39.808Z,8.32
2023-05-05T13:56:06.510Z,8.55
2023-05-05T13:58:33.148Z,8.68
2023-05-05T14:00:59.590Z,7.75
2023-05-05T14:03:27.314Z,7.10
2023-05-05T14:05:53.767Z,7.85
2023-05-05T14:08:20.152Z,7.75
2023-05-05T14:10:48.073Z,7.80
2023-05-05T14:13:15.400Z,8.25
2023-05-05T14:15:42.150Z,7.65
2023-05-05T14:18:08.722Z,8.98
2023-05-05T14:20:36.494Z,9.27
2023-05-05T14:23:02.901Z,8.32
2023-05-05T14:25:29.336Z,7.97
2023-05-05T14:27:55.765Z,8.73
2023-05-05T14:30:22.470Z,8.55
2023-05-05T14:32:48.932Z,7.72
2023-05-05T14:35:15.586Z,7.45
2023-05-05T14:37:43.280Z,8.98
2023-05-05T14:40:10.184Z,8.07
2023-05-05T14:42:36.557Z,8.15
2023-05-05T14:45:03.269Z,8.10
2023-05-05T14:47:29.690Z,9.13
2023-05-05T14:49:56.113Z,7.50
2023-05-05T14:52:22.950Z,8.23
2023-05-05T14:54:50.658Z,8.07
2023-05-05T14:57:17.098Z,8.43
2023-05-05T14:59:43.470Z,8.45
2023-05-05T15:02:09.834Z,6.55
2023-05-05T15:04:36.257Z,6.68
2023-05-05T15:07:02.638Z,6.50
2023-05-05T15:09:29.008Z,6.78
2023-05-05T15:11:56.707Z,6.43
2023-05-05T15:14:23.081Z,6.80
2023-05-05T15:16:49.455Z,6.90
2023-05-05T15:19:16.016Z,6.38
2023-05-05T15:21:42.404Z,7.28
2023-05-05T15:24:08.804Z,6.45
2023-05-05T15:26:35.214Z,7.03
2023-05-05T15:29:02.901Z,6.93
2023-05-05T15:31:29.308Z,6.85
2023-05-05T15:33:55.744Z,6.20
2023-05-05T15:36:22.160Z,6.93
2023-05-05T15:38:48.548Z,6.28
2023-05-05T15:41:14.934Z,6.75
2023-05-05T15:43:41.345Z,6.70
2023-05-05T15:46:09.021Z,7.35
2023-05-05T15:48:35.404Z,7.85
2023-05-05T15:51:01.773Z,7.80
2023-05-05T15:53:28.274Z,8.40
2023-05-05T15:55:54.701Z,8.05
2023-05-05T15:58:21.120Z,8.52
2023-05-05T16:00:47.510Z,8.93
2023-05-05T16:03:15.352Z,9.23
2023-05-05T16:05:41.776Z,8.98
2023-05-05T16:08:08.121Z,9.68
2023-05-05T16:10:34.525Z,9.52
2023-05-05T16:13:00.892Z,10.15
2023-05-05T16:15:27.559Z,10.27
2023-05-05T16:17:54.117Z,10.80
2023-05-05T16:20:21.896Z,11.60
2023-05-05T16:22:48.286Z,10.30
2023-05-05T16:25:14.878Z,11.90
2023-05-05T16:27:41.346Z,12.98
2023-05-05T16:30:09.912Z,13.45
2023-05-05T16:32:36.372Z,13.77
2023-05-05T16:35:02.843Z,13.10
2023-05-05T16:37:30.575Z,14.07
2023-05-05T16:39:56.994Z,14.93
2023-05-05T16:42:23.405Z,15.40
2023-05-05T16:44:49.804Z,15.43
2023-05-05T16:47:16.248Z,15.60
2023-05-05T16:49:42.623Z,15.70
2023-05-05T16:52:08.984Z,15.85
2023-05-05T16:54:36.669Z,15.05
2023-05-05T16:57:03.157Z,13.98
2023-05-05T16:59:31.519Z,8.98
2023-05-05T17:01:58.179Z,10.27
2023-05-05T17:04:24.605Z,9.43
2023-05-05T17:06:50.952Z,9.68
2023-05-05T17:09:17.371Z,9.30
2023-05-05T17:11:45.062Z,9.25
2023-05-05T17:14:11.479Z,7.25
2023-05-05T17:16:38.121Z,7.45
2023-05-05T17:19:04.566Z,7.53
2023-05-05T17:21:30.946Z,7.03
2023-05-05T17:23:57.342Z,5.63
2023-05-05T17:26:23.741Z,5.10
2023-05-05T17:28:51.407Z,4.93
2023-05-05T17:31:17.970Z,6.65
2023-05-05T17:33:44.396Z,7.38
2023-05-05T17:36:10.755Z,6.13
2023-05-05T17:38:37.200Z,6.50
2023-05-05T17:41:03.569Z,6.72
2023-05-05T17:43:29.956Z,6.00
2023-05-05T17:45:57.722Z,7.70
2023-05-05T17:48:24.097Z,6.93
2023-05-05T17:50:50.531Z,6.63
2023-05-05T17:53:16.930Z,4.10
2023-05-05T17:55:44.513Z,4.13
2023-05-05T17:58:10.996Z,3.70
2023-05-05T18:00:37.442Z,4.03
2023-05-05T18:03:05.210Z,4.43
2023-05-05T18:05:31.884Z,4.97
2023-05-05T18:07:58.251Z,4.03
2023-05-05T18:10:25.469Z,4.28
2023-05-05T18:12:51.867Z,3.90
2023-05-05T18:15:18.349Z,3.83
2023-05-05T18:17:50.868Z,3.63
2023-05-05T18:20:18.842Z,4.20
2023-05-05T18:22:45.194Z,4.30
2023-05-05T18:25:11.778Z,5.15
2023-05-05T18:27:39.674Z,4.55
2023-05-05T18:30:07.528Z,5.22
2023-05-05T18:32:34.018Z,4.75
2023-05-05T18:35:00.905Z,4.75
2023-05-05T18:37:28.650Z,4.78
2023-05-05T18:39:55.031Z,4.55
2023-05-05T18:42:21.442Z,4.70
2023-05-05T18:44:47.803Z,5.13
2023-05-05T18:47:14.181Z,5.20
2023-05-05T18:49:40.552Z,6.35
2023-05-05T18:52:06.908Z,5.38
2023-05-05T18:54:36.226Z,5.53
2023-05-05T18:57:04.003Z,5.93
2023-05-05T18:59:30.341Z,7.65
2023-05-05T19:01:56.712Z,7.55
2023-05-05T19:04:30.596Z,6.55
2023-05-05T19:06:57.965Z,6.63
2023-05-05T19:09:24.386Z,6.60
2023-05-05T19:11:52.111Z,7.13
2023-05-05T19:14:18.498Z,6.50
2023-05-05T19:16:45.040Z,6.15
2023-05-05T19:19:11.441Z,5.68
2023-05-05T19:21:38.310Z,6.35
2023-05-05T19:24:06.373Z,6.60
2023-05-05T19:26:32.733Z,5.75
2023-05-05T19:29:00.507Z,6.10
2023-05-05T19:31:26.982Z,5.88
2023-05-05T19:33:55.395Z,6.88
2023-05-05T19:36:21.798Z,6.78
2023-05-05T19:38:48.172Z,7.18
2023-05-05T19:41:14.592Z,7.45
2023-05-05T19:43:40.956Z,8.57
2023-05-05T19:46:08.697Z,6.97
2023-05-05T19:48:35.086Z,8.65
2023-05-05T19:51:01.503Z,7.78
2023-05-05T19:53:27.897Z,7.85
2023-05-05T19:55:54.335Z,8.65
2023-05-05T19:58:20.692Z,7.35
2023-05-05T20:00:47.160Z,8.18
2023-05-05T20:03:14.956Z,7.47
2023-05-05T20:05:41.329Z,7.55
2023-05-05T20:08:07.837Z,6.80
2023-05-05T20:10:34.357Z,7.85
2023-05-05T20:13:00.817Z,9.43
2023-05-05T20:15:27.241Z,9.10
2023-05-05T20:17:53.716Z,7.32
2023-05-05T20:20:22.281Z,7.45
2023-05-05T20:22:49.279Z,7.38
2023-05-05T20:25:15.796Z,8.15
2023-05-05T20:27:42.744Z,7.70
2023-05-05T20:30:10.381Z,6.50
2023-05-05T20:32:37.079Z,6.65
2023-05-05T20:35:03.826Z,7.53
2023-05-05T20:37:31.732Z,8.75
2023-05-05T20:39:58.117Z,6.80
2023-05-05T20:42:24.478Z,9.23
2023-05-05T20:44:50.909Z,9.73
2023-05-05T20:47:17.278Z,8.57
2023-05-05T20:49:43.630Z,8.70
2023-05-05T20:52:10.056Z,10.90
2023-05-05T20:54:37.770Z,9.82
2023-05-05T20:57:04.245Z,10.88
2023-05-05T20:59:30.631Z,10.90
2023-05-05T21:01:57.151Z,10.50
2023-05-05T21:04:23.630Z,9.80
2023-05-05T21:06:50.219Z,9.32
2023-05-05T21:09:16.636Z,8.15
2023-05-05T21:11:44.345Z,7.97
2023-05-05T21:14:10.729Z,9.57
2023-05-05T21:16:37.141Z,9.63
2023-05-05T21:19:03.526Z,9.38
2023-05-05T21:21:29.900Z,9.90
2023-05-05T21:23:56.253Z,10.43
2023-05-05T21:26:22.605Z,12.82
2023-05-05T21:28:50.396Z,11.63
2023-05-05T21:33:46.080Z,12.52
2023-05-05T21:36:12.778Z,12.07
2023-05-05T21:38:39.139Z,12.80
2023-05-05T21:41:05.537Z,12.20
2023-05-05T21:43:32.423Z,12.65
2023-05-05T21:46:00.844Z,11.48
2023-05-05T21:48:27.305Z,13.88
2023-05-05T21:50:53.688Z,12.70
2023-05-05T21:53:20.591Z,12.95
2023-05-05T21:55:47.268Z,12.70
2023-05-05T21:58:13.974Z,13.45
2023-05-05T22:00:40.379Z,13.57
2023-05-05T22:03:08.263Z,11.32
2023-05-05T22:05:34.800Z,11.63
2023-05-05T22:08:01.179Z,10.93
2023-05-05T22:10:27.578Z,9.23
2023-05-05T22:12:54.100Z,13.02
2023-05-05T22:15:21.228Z,12.27
2023-05-05T22:17:48.259Z,11.55
2023-05-05T22:20:16.148Z,11.05
2023-05-05T22:22:42.517Z,11.25
2023-05-05T22:25:09.818Z,10.13
2023-05-05T22:27:36.432Z,11.52
2023-05-05T22:30:03.290Z,12.85
2023-05-05T22:32:30.307Z,10.98
2023-05-05T22:34:56.700Z,10.63
2023-05-05T22:37:24.393Z,11.45
2023-05-05T22:39:50.769Z,12.05
2023-05-05T22:42:17.338Z,11.82
2023-05-05T22:44:44.114Z,12.32
2023-05-05T22:47:10.564Z,12.90
2023-05-05T22:49:37.168Z,12.85
2023-05-05T22:52:03.685Z,10.90
2023-05-05T22:54:31.373Z,11.23
2023-05-05T22:56:57.751Z,12.18
2023-05-05T22:59:24.183Z,14.48
2023-05-05T23:01:51.212Z,12.32
2023-05-05T23:04:17.701Z,13.00
2023-05-05T23:06:44.133Z,13.38
2023-05-05T23:09:10.500Z,13.75
2023-05-05T23:11:38.334Z,14.32
2023-05-05T23:14:04.728Z,13.40
2023-05-05T23:16:31.118Z,15.52
2023-05-05T23:18:57.604Z,14.43
2023-05-05T23:21:24.078Z,13.63
2023-05-05T23:23:50.435Z,15.07
2023-05-05T23:26:16.931Z,15.85
2023-05-05T23:28:44.608Z,15.38
2023-05-05T23:31:11.081Z,13.38
2023-05-05T23:33:37.484Z,16.45
2023-05-05T23:36:04.425Z,18.65
2023-05-05T23:38:30.887Z,18.48
2023-05-05T23:40:57.307Z,21.60
2023-05-05T23:43:23.719Z,22.85
2023-05-05T23:45:51.433Z,24.38
2023-05-05T23:48:17.846Z,23.08
2023-05-05T23:50:44.242Z,26.77
2023-05-05T23:53:10.622Z,24.63
2023-05-05T23:55:37.056Z,27.45
2023-05-05T23:58:03.425Z,23.77
